Caribbean Princess — ZCDG8 — position and weather

sailwx.info

Track history (hours):
 
Tides and Currents Weather Stations Pressure Air Temp Water Temp Dewpoint Dewpoint Depression Visibility Wind Speed Wind Dir Waves Ship Positions

Caribbean Princess

Operator: Princess Cruises

Last reported at 2016-Jun-27 16:31 UTC. Time now 2016-Jun-27 16:49 UTC.
Position N 51°51' W 008°18'.

Type: Passenger vessel. MMSI: 310423000.

Date/timePositionNaut miles runAvg speedWind from/ knotsBaromVisibWave heightAir tempDewpointWater temp
2016-Jun-27 16:31N 51°51' W 008°18'0 0.0
2016-Jun-27 15:31N 51°51' W 008°18'0 0.0
2016-Jun-27 14:31N 51°51' W 008°18'0 0.0
2016-Jun-27 13:31N 51°51' W 008°18'0 0.0
2016-Jun-27 12:31N 51°51' W 008°18'0 0.0
2016-Jun-27 11:31N 51°51' W 008°18'0 0.0
2016-Jun-27 10:31N 51°51' W 008°18'0 0.0
2016-Jun-27 09:31N 51°51' W 008°18'0 0.0
2016-Jun-27 08:31N 51°51' W 008°18'0 0.0
2016-Jun-27 07:31N 51°51' W 008°18'0 0.2
2016-Jun-27 06:33N 51°51' W 008°18'9 8.6
2016-Jun-27 05:33N 51°43' W 008°14'1918.8
2016-Jun-27 04:33N 51°30' W 007°52'5320.8
2016-Jun-27 02:00N 50°54' W 006°48'4021.6 300 / 301019.910.8 2.015.011.318.0
2016-Jun-27 00:07N 50°25' W 006°03'1119.1
2016-Jun-26 23:33N 50°16' W 005°54'3516.4
2016-Jun-26 21:26N 49°49' W 005°21'1820.2
2016-Jun-26 20:33N 49°45' W 004°54'2219.8
2016-Jun-26 19:28N 49°40' W 004°21'49 2.7
2016-Jun-26 01:33N 49°54' W 003°09'1414.5
2016-Jun-26 00:33N 49°60' W 002°49'6115.4
2016-Jun-25 20:34N 50°26' W 001°21'1717.0
2016-Jun-25 19:34N 50°36' W 000°60'1111.2
2016-Jun-25 18:33N 50°45' W 001°08'1010.1
2016-Jun-25 17:34N 50°51' W 001°21'4 3.9
2016-Jun-25 16:30N 50°54' W 001°26'0 0.0
2016-Jun-25 15:30N 50°54' W 001°26'0 0.0
2016-Jun-25 14:27N 50°54' W 001°26'0 0.0
2016-Jun-25 13:30N 50°54' W 001°26'0 0.0
2016-Jun-25 12:24N 50°54' W 001°26'0 0.0
2016-Jun-25 11:30N 50°54' W 001°26'0 0.0
2016-Jun-25 10:30N 50°54' W 001°26'0 0.0
2016-Jun-25 09:33N 50°54' W 001°26'0 0.0
2016-Jun-25 08:27N 50°54' W 001°26'0 0.0
2016-Jun-25 07:27N 50°54' W 001°26'0 0.0
2016-Jun-25 06:33N 50°54' W 001°26'0 0.0
2016-Jun-25 05:33N 50°54' W 001°26'0 0.0
2016-Jun-25 04:33N 50°54' W 001°26'2 1.8
2016-Jun-25 03:33N 50°53' W 001°24'8 8.2
2016-Jun-25 02:34N 50°46' W 001°16'1313.2
2016-Jun-25 01:33N 50°40' W 000°58'10 9.9
2016-Jun-25 00:33N 50°30' W 000°58'2913.8
2016-Jun-24 22:29N 50°03' W 000°45'1516.0
2016-Jun-24 21:33N 49°49' W 000°35'1615.7
2016-Jun-24 20:33N 49°35' W 000°24'1515.1
2016-Jun-24 19:33N 49°31' W 000°02'6 5.6
2016-Jun-24 18:33N 49°29' E 000°06'0 0.2
2016-Jun-24 17:33N 49°29' E 000°07'0 0.0
2016-Jun-24 16:33N 49°29' E 000°07'0 0.0
2016-Jun-24 15:31N 49°29' E 000°07'0 0.0
2016-Jun-24 14:31N 49°29' E 000°07'0 0.0
2016-Jun-24 13:31N 49°29' E 000°07'0 0.0
2016-Jun-24 12:33N 49°29' E 000°07'0 0.0
2016-Jun-24 11:32N 49°29' E 000°07'0 0.0
2016-Jun-24 10:32N 49°29' E 000°07'0 0.0
2016-Jun-24 09:34N 49°29' E 000°07'0 0.0
2016-Jun-24 08:34N 49°29' E 000°07'0 0.0
2016-Jun-24 07:34N 49°29' E 000°07'0 0.0
2016-Jun-24 04:34N 49°29' E 000°06'9 9.2
2016-Jun-24 03:34N 49°31' W 000°07'1010.2
2016-Jun-24 02:33N 49°36' W 000°21'1313.2
2016-Jun-24 01:34N 49°50' W 000°22'1413.8
2016-Jun-24 00:33N 50°02' W 000°12'1313.0
2016-Jun-23 23:33N 50°14' W 000°04'1313.2
2016-Jun-23 22:33N 50°27' W 000°03'1211.9
2016-Jun-23 21:33N 50°31' E 000°15'3413.9
2016-Jun-23 19:08N 50°47' E 001°02'749.4
2016-Jun-23 19:00N 50°42' E 000°54'1635.7 190 / 41016.1 0.5 13.0
2016-Jun-23 18:33N 50°52' E 001°13'1818.0
2016-Jun-23 17:33N 51°06' E 001°31'1616.3
2016-Jun-23 16:34N 51°18' E 001°48'1615.8
2016-Jun-23 15:34N 51°32' E 002°02'1615.7
2016-Jun-23 14:34N 51°46' E 002°11'1717.1
2016-Jun-23 13:33N 52°03' E 002°15'6019.1
2016-Jun-23 10:24N 53°03' E 002°25'1619.2
2016-Jun-23 09:33N 53°15' E 002°08'3718.7
2016-Jun-23 07:33N 53°47' E 001°34'3818.8
2016-Jun-23 05:32N 54°20' E 001°02'1818.9
2016-Jun-23 04:34N 54°33' E 000°40'3 6.2
2016-Jun-23 04:00N 54°30' E 000°42'2251.0 120 / 51016.1 5.4 13.0
2016-Jun-23 03:34N 54°47' E 000°18'1017.2
2016-Jun-23 03:00N 54°54' E 000°06'920.1 100 / 31016.410.8 13.0
2016-Jun-23 02:33N 55°01' W 000°03'1818.3
2016-Jun-23 01:33N 55°15' W 000°25'1818.0
2016-Jun-23 00:33N 55°28' W 000°46'5117.1
2016-Jun-22 21:34N 55°60' W 001°58'1717.3
2016-Jun-22 20:34N 56°05' W 002°27'1717.2
2016-Jun-22 19:34N 56°04' W 002°57'1413.9
2016-Jun-22 18:33N 56°01' W 003°22'0 0.2
2016-Jun-22 16:17N 56°00' W 003°22'0 0.0
2016-Jun-22 15:32N 56°00' W 003°22'0 0.0
2016-Jun-22 14:32N 56°00' W 003°22'0 0.1
2016-Jun-22 13:32N 56°00' W 003°22'0 0.0
2016-Jun-22 12:32N 56°00' W 003°22'0 0.1
2016-Jun-22 11:17N 56°00' W 003°22'0 0.0
2016-Jun-22 08:32N 56°00' W 003°22'1 0.3
2016-Jun-22 05:25N 56°01' W 003°21'1213.8
2016-Jun-22 04:33N 56°04' W 002°60'1615.7
2016-Jun-22 03:34N 56°09' W 002°34'1818.5
2016-Jun-22 02:34N 56°24' W 002°13'1919.2
2016-Jun-22 01:34N 56°41' W 001°57'124 4.0
2016-Jun-20 18:33N 58°43' W 002°40'1111.3
2016-Jun-20 17:33N 58°43' W 003°01'1212.3
2016-Jun-20 16:33N 58°43' W 003°25'1211.9
2016-Jun-20 15:33N 58°42' W 003°48'1212.5
2016-Jun-20 14:34N 58°43' W 004°12'1313.2
2016-Jun-20 13:33N 58°42' W 004°38'14415.1
2016-Jun-20 04:00N 56°42' W 007°06'5422.4 230 / 201002.710.8 0.5 13.0
2016-Jun-20 01:33N 55°48' W 007°02'1919.5
2016-Jun-20 00:33N 55°34' W 006°38'1919.1
2016-Jun-19 23:33N 55°25' W 006°07'1717.3
2016-Jun-19 22:33N 55°14' W 005°44'2016.7
2016-Jun-19 21:21N 55°20' W 005°11'2 0.1
2016-Jun-19 02:27N 55°20' W 005°07'1616.6
2016-Jun-19 01:30N 55°06' W 005°19'1819.3
2016-Jun-19 00:34N 54°48' W 005°16'2221.8
2016-Jun-18 23:33N 54°28' W 005°01'2020.0
2016-Jun-18 22:33N 54°08' W 005°06'5019.7
2016-Jun-18 20:00N 53°36' W 004°00'916.1 270 / 251022.010.8 1.013.011.113.0
2016-Jun-18 19:26N 53°35' W 003°45'1517.4
2016-Jun-18 18:33N 53°32' W 003°20'9 8.8
2016-Jun-18 17:34N 53°30' W 003°05'6 6.1
2016-Jun-18 16:33N 53°25' W 003°00'0 0.0
2016-Jun-18 15:31N 53°25' W 003°00'0 0.0
2016-Jun-18 14:31N 53°25' W 003°00'0 0.0
2016-Jun-18 13:31N 53°25' W 003°00'0 0.0
2016-Jun-18 12:31N 53°25' W 003°00'0 0.0
2016-Jun-18 11:31N 53°25' W 003°00'0 0.0
2016-Jun-18 10:31N 53°25' W 003°00'0 0.0
2016-Jun-18 09:31N 53°25' W 003°00'0 0.0
2016-Jun-18 08:31N 53°25' W 003°00'0 0.0
2016-Jun-18 07:31N 53°25' W 003°00'0 0.0
2016-Jun-18 06:28N 53°25' W 003°00'0 0.0
2016-Jun-18 05:33N 53°25' W 003°00'6 5.8
2016-Jun-18 04:33N 53°29' W 003°05'9 8.5
2016-Jun-18 03:33N 53°31' W 003°19'1212.0
2016-Jun-18 02:33N 53°31' W 003°40'1212.4
2016-Jun-18 01:34N 53°35' W 003°59'4713.1
2016-Jun-17 22:00N 54°00' W 005°06'613.1 320 / 251016.010.8 1.513.011.1
2016-Jun-17 21:33N 54°04' W 005°13'1514.9
2016-Jun-17 20:34N 54°18' W 005°04'1716.7
2016-Jun-17 19:33N 54°34' W 005°14'1716.7
2016-Jun-17 18:34N 54°42' W 005°39'10 9.6
2016-Jun-17 17:32N 54°37' W 005°54'  
Track history (hours):
 
Tides and Currents Weather Stations Pressure Air Temp Water Temp Dewpoint Dewpoint Depression Visibility Wind Speed Wind Dir Waves Ship Positions

Caribbean Princess

Operator: Princess Cruises

Last reported at 2016-Jun-27 16:31 UTC. Time now 2016-Jun-27 16:49 UTC.
Position N 51°51' W 008°18'.

Type: Passenger vessel. MMSI: 310423000.

Date/timePositionNaut miles runAvg speedWind from/ knotsBaromVisibWave heightAir tempDewpointWater temp
2016-Jun-27 16:31N 51°51' W 008°18'0 0.0
2016-Jun-27 15:31N 51°51' W 008°18'0 0.0
2016-Jun-27 14:31N 51°51' W 008°18'0 0.0
2016-Jun-27 13:31N 51°51' W 008°18'0 0.0
2016-Jun-27 12:31N 51°51' W 008°18'0 0.0
2016-Jun-27 11:31N 51°51' W 008°18'0 0.0
2016-Jun-27 10:31N 51°51' W 008°18'0 0.0
2016-Jun-27 09:31N 51°51' W 008°18'0 0.0
2016-Jun-27 08:31N 51°51' W 008°18'0 0.0
2016-Jun-27 07:31N 51°51' W 008°18'0 0.2
2016-Jun-27 06:33N 51°51' W 008°18'9 8.6
2016-Jun-27 05:33N 51°43' W 008°14'1918.8
2016-Jun-27 04:33N 51°30' W 007°52'5320.8
2016-Jun-27 02:00N 50°54' W 006°48'4021.6 300 / 301019.910.8 2.015.011.318.0
2016-Jun-27 00:07N 50°25' W 006°03'1119.1
2016-Jun-26 23:33N 50°16' W 005°54'3516.4
2016-Jun-26 21:26N 49°49' W 005°21'1820.2
2016-Jun-26 20:33N 49°45' W 004°54'2219.8
2016-Jun-26 19:28N 49°40' W 004°21'49 2.7
2016-Jun-26 01:33N 49°54' W 003°09'1414.5
2016-Jun-26 00:33N 49°60' W 002°49'6115.4
2016-Jun-25 20:34N 50°26' W 001°21'1717.0
2016-Jun-25 19:34N 50°36' W 000°60'1111.2
2016-Jun-25 18:33N 50°45' W 001°08'1010.1
2016-Jun-25 17:34N 50°51' W 001°21'4 3.9
2016-Jun-25 16:30N 50°54' W 001°26'0 0.0
2016-Jun-25 15:30N 50°54' W 001°26'0 0.0
2016-Jun-25 14:27N 50°54' W 001°26'0 0.0
2016-Jun-25 13:30N 50°54' W 001°26'0 0.0
2016-Jun-25 12:24N 50°54' W 001°26'0 0.0
2016-Jun-25 11:30N 50°54' W 001°26'0 0.0
2016-Jun-25 10:30N 50°54' W 001°26'0 0.0
2016-Jun-25 09:33N 50°54' W 001°26'0 0.0
2016-Jun-25 08:27N 50°54' W 001°26'0 0.0
2016-Jun-25 07:27N 50°54' W 001°26'0 0.0
2016-Jun-25 06:33N 50°54' W 001°26'0 0.0
2016-Jun-25 05:33N 50°54' W 001°26'0 0.0
2016-Jun-25 04:33N 50°54' W 001°26'2 1.8
2016-Jun-25 03:33N 50°53' W 001°24'8 8.2
2016-Jun-25 02:34N 50°46' W 001°16'1313.2
2016-Jun-25 01:33N 50°40' W 000°58'10 9.9
2016-Jun-25 00:33N 50°30' W 000°58'2913.8
2016-Jun-24 22:29N 50°03' W 000°45'1516.0
2016-Jun-24 21:33N 49°49' W 000°35'1615.7
2016-Jun-24 20:33N 49°35' W 000°24'1515.1
2016-Jun-24 19:33N 49°31' W 000°02'6 5.6
2016-Jun-24 18:33N 49°29' E 000°06'0 0.2
2016-Jun-24 17:33N 49°29' E 000°07'0 0.0
2016-Jun-24 16:33N 49°29' E 000°07'0 0.0
2016-Jun-24 15:31N 49°29' E 000°07'0 0.0
2016-Jun-24 14:31N 49°29' E 000°07'0 0.0
2016-Jun-24 13:31N 49°29' E 000°07'0 0.0
2016-Jun-24 12:33N 49°29' E 000°07'0 0.0
2016-Jun-24 11:32N 49°29' E 000°07'0 0.0
2016-Jun-24 10:32N 49°29' E 000°07'0 0.0
2016-Jun-24 09:34N 49°29' E 000°07'0 0.0
2016-Jun-24 08:34N 49°29' E 000°07'0 0.0
2016-Jun-24 07:34N 49°29' E 000°07'0 0.0
2016-Jun-24 04:34N 49°29' E 000°06'9 9.2
2016-Jun-24 03:34N 49°31' W 000°07'1010.2
2016-Jun-24 02:33N 49°36' W 000°21'1313.2
2016-Jun-24 01:34N 49°50' W 000°22'1413.8
2016-Jun-24 00:33N 50°02' W 000°12'1313.0
2016-Jun-23 23:33N 50°14' W 000°04'1313.2
2016-Jun-23 22:33N 50°27' W 000°03'1211.9
2016-Jun-23 21:33N 50°31' E 000°15'3413.9
2016-Jun-23 19:08N 50°47' E 001°02'749.4
2016-Jun-23 19:00N 50°42' E 000°54'1635.7 190 / 41016.1 0.5 13.0
2016-Jun-23 18:33N 50°52' E 001°13'1818.0
2016-Jun-23 17:33N 51°06' E 001°31'1616.3
2016-Jun-23 16:34N 51°18' E 001°48'1615.8
2016-Jun-23 15:34N 51°32' E 002°02'1615.7
2016-Jun-23 14:34N 51°46' E 002°11'1717.1
2016-Jun-23 13:33N 52°03' E 002°15'6019.1
2016-Jun-23 10:24N 53°03' E 002°25'1619.2
2016-Jun-23 09:33N 53°15' E 002°08'3718.7
2016-Jun-23 07:33N 53°47' E 001°34'3818.8
2016-Jun-23 05:32N 54°20' E 001°02'1818.9
2016-Jun-23 04:34N 54°33' E 000°40'3 6.2
2016-Jun-23 04:00N 54°30' E 000°42'2251.0 120 / 51016.1 5.4 13.0
2016-Jun-23 03:34N 54°47' E 000°18'1017.2
2016-Jun-23 03:00N 54°54' E 000°06'920.1 100 / 31016.410.8 13.0
2016-Jun-23 02:33N 55°01' W 000°03'1818.3
2016-Jun-23 01:33N 55°15' W 000°25'1818.0
2016-Jun-23 00:33N 55°28' W 000°46'5117.1
2016-Jun-22 21:34N 55°60' W 001°58'1717.3
2016-Jun-22 20:34N 56°05' W 002°27'1717.2
2016-Jun-22 19:34N 56°04' W 002°57'1413.9
2016-Jun-22 18:33N 56°01' W 003°22'0 0.2
2016-Jun-22 16:17N 56°00' W 003°22'0 0.0
2016-Jun-22 15:32N 56°00' W 003°22'0 0.0
2016-Jun-22 14:32N 56°00' W 003°22'0 0.1
2016-Jun-22 13:32N 56°00' W 003°22'0 0.0
2016-Jun-22 12:32N 56°00' W 003°22'0 0.1
2016-Jun-22 11:17N 56°00' W 003°22'0 0.0
2016-Jun-22 08:32N 56°00' W 003°22'1 0.3
2016-Jun-22 05:25N 56°01' W 003°21'1213.8
2016-Jun-22 04:33N 56°04' W 002°60'1615.7
2016-Jun-22 03:34N 56°09' W 002°34'1818.5
2016-Jun-22 02:34N 56°24' W 002°13'1919.2
2016-Jun-22 01:34N 56°41' W 001°57'124 4.0
2016-Jun-20 18:33N 58°43' W 002°40'1111.3
2016-Jun-20 17:33N 58°43' W 003°01'1212.3
2016-Jun-20 16:33N 58°43' W 003°25'1211.9
2016-Jun-20 15:33N 58°42' W 003°48'1212.5
2016-Jun-20 14:34N 58°43' W 004°12'1313.2
2016-Jun-20 13:33N 58°42' W 004°38'14415.1
2016-Jun-20 04:00N 56°42' W 007°06'5422.4 230 / 201002.710.8 0.5 13.0
2016-Jun-20 01:33N 55°48' W 007°02'1919.5
2016-Jun-20 00:33N 55°34' W 006°38'1919.1
2016-Jun-19 23:33N 55°25' W 006°07'1717.3
2016-Jun-19 22:33N 55°14' W 005°44'2016.7
2016-Jun-19 21:21N 55°20' W 005°11'2 0.1
2016-Jun-19 02:27N 55°20' W 005°07'1616.6
2016-Jun-19 01:30N 55°06' W 005°19'1819.3
2016-Jun-19 00:34N 54°48' W 005°16'2221.8
2016-Jun-18 23:33N 54°28' W 005°01'2020.0
2016-Jun-18 22:33N 54°08' W 005°06'5019.7
2016-Jun-18 20:00N 53°36' W 004°00'916.1 270 / 251022.010.8 1.013.011.113.0
2016-Jun-18 19:26N 53°35' W 003°45'1517.4
2016-Jun-18 18:33N 53°32' W 003°20'9 8.8
2016-Jun-18 17:34N 53°30' W 003°05'6 6.1
2016-Jun-18 16:33N 53°25' W 003°00'0 0.0
2016-Jun-18 15:31N 53°25' W 003°00'0 0.0
2016-Jun-18 14:31N 53°25' W 003°00'0 0.0
2016-Jun-18 13:31N 53°25' W 003°00'0 0.0
2016-Jun-18 12:31N 53°25' W 003°00'0 0.0
2016-Jun-18 11:31N 53°25' W 003°00'0 0.0
2016-Jun-18 10:31N 53°25' W 003°00'0 0.0
2016-Jun-18 09:31N 53°25' W 003°00'0 0.0
2016-Jun-18 08:31N 53°25' W 003°00'0 0.0
2016-Jun-18 07:31N 53°25' W 003°00'0 0.0
2016-Jun-18 06:28N 53°25' W 003°00'0 0.0
2016-Jun-18 05:33N 53°25' W 003°00'6 5.8
2016-Jun-18 04:33N 53°29' W 003°05'9 8.5
2016-Jun-18 03:33N 53°31' W 003°19'1212.0
2016-Jun-18 02:33N 53°31' W 003°40'1212.4
2016-Jun-18 01:34N 53°35' W 003°59'4713.1
2016-Jun-17 22:00N 54°00' W 005°06'613.1 320 / 251016.010.8 1.513.011.1
2016-Jun-17 21:33N 54°04' W 005°13'1514.9
2016-Jun-17 20:34N 54°18' W 005°04'1716.7
2016-Jun-17 19:33N 54°34' W 005°14'1716.7
2016-Jun-17 18:34N 54°42' W 005°39'10 9.6
2016-Jun-17 17:32N 54°37' W 005°54'  

Dump ship's entire track history